sensor_id;sensor_type;location;lat;lon;timestamp;pressure;altitude;pressure_sealevel;temperature;humidity
14689;BME280;7432;48.728;9.154;2022-08-19T00:01:38;96184.94;;;21.05;69.42
14689;BME280;7432;48.728;9.154;2022-08-19T00:04:09;96186.88;;;21.10;69.29
14689;BME280;7432;48.728;9.154;2022-08-19T00:06:39;96187.13;;;21.08;69.65
14689;BME280;7432;48.728;9.154;2022-08-19T00:09:08;96185.63;;;21.12;69.77
14689;BME280;7432;48.728;9.154;2022-08-19T00:11:36;96185.53;;;21.07;69.75
14689;BME280;7432;48.728;9.154;2022-08-19T00:14:04;96192.00;;;21.05;69.83
14689;BME280;7432;48.728;9.154;2022-08-19T00:16:31;96199.66;;;21.06;70.04
14689;BME280;7432;48.728;9.154;2022-08-19T00:18:58;96202.25;;;21.06;69.60
14689;BME280;7432;48.728;9.154;2022-08-19T00:21:26;96189.75;;;21.08;69.55
14689;BME280;7432;48.728;9.154;2022-08-19T00:23:53;96193.72;;;21.11;69.67
14689;BME280;7432;48.728;9.154;2022-08-19T00:26:20;96192.72;;;21.12;69.65
14689;BME280;7432;48.728;9.154;2022-08-19T00:28:46;96192.25;;;21.03;69.85
14689;BME280;7432;48.728;9.154;2022-08-19T00:31:13;96182.69;;;20.97;70.21
14689;BME280;7432;48.728;9.154;2022-08-19T00:33:41;96187.03;;;20.92;70.58
14689;BME280;7432;48.728;9.154;2022-08-19T00:36:08;96176.56;;;20.92;70.38
14689;BME280;7432;48.728;9.154;2022-08-19T00:38:38;96163.94;;;20.89;70.88
14689;BME280;7432;48.728;9.154;2022-08-19T00:41:07;96156.69;;;20.79;71.00
14689;BME280;7432;48.728;9.154;2022-08-19T00:43:34;96158.59;;;20.84;70.98
14689;BME280;7432;48.728;9.154;2022-08-19T00:46:00;96158.38;;;20.85;71.07
14689;BME280;7432;48.728;9.154;2022-08-19T00:48:30;96164.50;;;20.91;71.03
14689;BME280;7432;48.728;9.154;2022-08-19T00:50:58;96162.25;;;20.83;71.63
14689;BME280;7432;48.728;9.154;2022-08-19T00:53:27;96176.22;;;20.88;71.93
14689;BME280;7432;48.728;9.154;2022-08-19T00:55:58;96177.94;;;20.83;72.49
14689;BME280;7432;48.728;9.154;2022-08-19T00:58:30;96177.50;;;20.74;72.73
14689;BME280;7432;48.728;9.154;2022-08-19T01:00:58;96183.19;;;20.71;72.91
14689;BME280;7432;48.728;9.154;2022-08-19T01:03:25;96180.47;;;20.78;72.38
14689;BME280;7432;48.728;9.154;2022-08-19T01:05:54;96182.75;;;20.74;72.96
14689;BME280;7432;48.728;9.154;2022-08-19T01:08:21;96180.94;;;20.75;73.19
14689;BME280;7432;48.728;9.154;2022-08-19T01:10:50;96177.28;;;20.76;73.46
14689;BME280;7432;48.728;9.154;2022-08-19T01:13:21;96174.59;;;20.71;72.90
14689;BME280;7432;48.728;9.154;2022-08-19T01:15:52;96171.97;;;20.71;73.78
14689;BME280;7432;48.728;9.154;2022-08-19T01:18:21;96165.69;;;20.72;73.91
14689;BME280;7432;48.728;9.154;2022-08-19T01:20:48;96181.97;;;20.74;74.42
14689;BME280;7432;48.728;9.154;2022-08-19T01:23:16;96162.50;;;20.69;74.42
14689;BME280;7432;48.728;9.154;2022-08-19T01:25:45;96169.25;;;20.65;74.80
14689;BME280;7432;48.728;9.154;2022-08-19T01:28:17;96172.53;;;20.61;74.64
14689;BME280;7432;48.728;9.154;2022-08-19T01:30:44;96166.97;;;20.57;74.34
14689;BME280;7432;48.728;9.154;2022-08-19T01:33:12;96160.16;;;20.56;74.57
14689;BME280;7432;48.728;9.154;2022-08-19T01:35:39;96162.41;;;20.64;73.95
14689;BME280;7432;48.728;9.154;2022-08-19T01:38:18;96158.19;;;20.63;73.42
14689;BME280;7432;48.728;9.154;2022-08-19T01:40:46;96157.88;;;20.60;73.43
14689;BME280;7432;48.728;9.154;2022-08-19T01:43:13;96163.22;;;20.53;73.69
14689;BME280;7432;48.728;9.154;2022-08-19T01:45:40;96154.56;;;20.53;73.92
14689;BME280;7432;48.728;9.154;2022-08-19T01:48:07;96153.13;;;20.45;73.75
14689;BME280;7432;48.728;9.154;2022-08-19T01:50:35;96158.81;;;20.42;73.89
14689;BME280;7432;48.728;9.154;2022-08-19T01:53:04;96154.72;;;20.46;73.72
14689;BME280;7432;48.728;9.154;2022-08-19T01:55:31;96158.81;;;20.42;73.85
14689;BME280;7432;48.728;9.154;2022-08-19T01:58:02;96161.41;;;20.42;74.21
14689;BME280;7432;48.728;9.154;2022-08-19T02:00:31;96164.94;;;20.48;73.82
14689;BME280;7432;48.728;9.154;2022-08-19T02:02:58;96163.59;;;20.45;73.94
14689;BME280;7432;48.728;9.154;2022-08-19T02:05:26;96170.88;;;20.43;73.84
14689;BME280;7432;48.728;9.154;2022-08-19T02:07:54;96165.06;;;20.41;74.20
14689;BME280;7432;48.728;9.154;2022-08-19T02:10:21;96166.09;;;20.40;74.08
14689;BME280;7432;48.728;9.154;2022-08-19T02:12:49;96159.94;;;20.46;73.78
14689;BME280;7432;48.728;9.154;2022-08-19T02:15:17;96153.34;;;20.44;73.82
14689;BME280;7432;48.728;9.154;2022-08-19T02:17:45;96157.44;;;20.40;73.77
14689;BME280;7432;48.728;9.154;2022-08-19T02:20:12;96161.66;;;20.41;73.76
14689;BME280;7432;48.728;9.154;2022-08-19T02:22:39;96155.53;;;20.35;73.98
14689;BME280;7432;48.728;9.154;2022-08-19T02:25:08;96162.34;;;20.36;74.30
14689;BME280;7432;48.728;9.154;2022-08-19T02:27:35;96167.81;;;20.35;73.62
14689;BME280;7432;48.728;9.154;2022-08-19T02:30:04;96166.75;;;20.36;74.10
14689;BME280;7432;48.728;9.154;2022-08-19T02:32:32;96166.91;;;20.29;74.59
14689;BME280;7432;48.728;9.154;2022-08-19T02:34:59;96166.91;;;20.29;74.83
14689;BME280;7432;48.728;9.154;2022-08-19T02:37:25;96167.13;;;20.28;74.92
14689;BME280;7432;48.728;9.154;2022-08-19T02:40:10;96159.25;;;20.28;74.87
14689;BME280;7432;48.728;9.154;2022-08-19T02:42:36;96161.66;;;20.29;74.84
14689;BME280;7432;48.728;9.154;2022-08-19T02:45:04;96157.25;;;20.30;74.47
14689;BME280;7432;48.728;9.154;2022-08-19T02:47:32;96154.13;;;20.33;74.62
14689;BME280;7432;48.728;9.154;2022-08-19T02:50:00;96156.53;;;20.34;74.38
14689;BME280;7432;48.728;9.154;2022-08-19T02:52:26;96149.59;;;20.28;74.85
14689;BME280;7432;48.728;9.154;2022-08-19T02:54:53;96145.63;;;20.26;75.10
14689;BME280;7432;48.728;9.154;2022-08-19T02:57:22;96154.84;;;20.28;74.86
14689;BME280;7432;48.728;9.154;2022-08-19T02:59:49;96147.66;;;20.24;75.26
14689;BME280;7432;48.728;9.154;2022-08-19T03:02:16;96143.88;;;20.20;75.15
14689;BME280;7432;48.728;9.154;2022-08-19T03:04:44;96137.53;;;20.16;75.30
14689;BME280;7432;48.728;9.154;2022-08-19T03:07:12;96144.22;;;20.11;75.81
14689;BME280;7432;48.728;9.154;2022-08-19T03:09:39;96153.34;;;20.09;75.45
14689;BME280;7432;48.728;9.154;2022-08-19T03:12:07;96157.09;;;20.13;75.48
14689;BME280;7432;48.728;9.154;2022-08-19T03:14:34;96163.34;;;20.12;75.92
14689;BME280;7432;48.728;9.154;2022-08-19T03:17:01;96168.00;;;20.10;75.77
14689;BME280;7432;48.728;9.154;2022-08-19T03:19:29;96174.03;;;20.10;76.01
14689;BME280;7432;48.728;9.154;2022-08-19T03:21:58;96169.03;;;20.09;76.15
14689;BME280;7432;48.728;9.154;2022-08-19T03:24:24;96167.66;;;20.06;76.08
14689;BME280;7432;48.728;9.154;2022-08-19T03:26:53;96159.81;;;20.06;76.42
14689;BME280;7432;48.728;9.154;2022-08-19T03:29:23;96160.72;;;20.00;76.61
14689;BME280;7432;48.728;9.154;2022-08-19T03:31:50;96143.66;;;19.98;76.61
14689;BME280;7432;48.728;9.154;2022-08-19T03:34:19;96157.78;;;19.97;76.62
14689;BME280;7432;48.728;9.154;2022-08-19T03:36:46;96161.41;;;19.96;76.68
14689;BME280;7432;48.728;9.154;2022-08-19T03:39:15;96163.22;;;19.95;76.68
14689;BME280;7432;48.728;9.154;2022-08-19T03:41:44;96165.28;;;19.93;76.88
14689;BME280;7432;48.728;9.154;2022-08-19T03:44:11;96163.66;;;19.92;77.14
14689;BME280;7432;48.728;9.154;2022-08-19T03:46:37;96154.25;;;19.91;77.34
14689;BME280;7432;48.728;9.154;2022-08-19T03:49:04;96152.66;;;19.90;77.14
14689;BME280;7432;48.728;9.154;2022-08-19T03:51:34;96155.03;;;19.92;77.33
14689;BME280;7432;48.728;9.154;2022-08-19T03:54:03;96160.84;;;19.94;76.82
14689;BME280;7432;48.728;9.154;2022-08-19T03:56:33;96162.75;;;19.87;76.97
14689;BME280;7432;48.728;9.154;2022-08-19T03:59:00;96168.66;;;19.82;77.53
14689;BME280;7432;48.728;9.154;2022-08-19T04:01:28;96165.69;;;19.79;77.24
14689;BME280;7432;48.728;9.154;2022-08-19T04:03:56;96163.97;;;19.73;77.62
14689;BME280;7432;48.728;9.154;2022-08-19T04:06:24;96174.44;;;19.73;78.17
14689;BME280;7432;48.728;9.154;2022-08-19T04:08:53;96176.59;;;19.76;77.64
14689;BME280;7432;48.728;9.154;2022-08-19T04:11:22;96171.59;;;19.74;77.85
14689;BME280;7432;48.728;9.154;2022-08-19T04:13:52;96170.13;;;19.78;77.37
14689;BME280;7432;48.728;9.154;2022-08-19T04:16:19;96177.53;;;19.70;77.94
14689;BME280;7432;48.728;9.154;2022-08-19T04:18:46;96166.84;;;19.71;77.97
14689;BME280;7432;48.728;9.154;2022-08-19T04:21:17;96173.41;;;19.74;77.89
14689;BME280;7432;48.728;9.154;2022-08-19T04:23:44;96170.44;;;19.70;78.15
14689;BME280;7432;48.728;9.154;2022-08-19T04:26:13;96177.63;;;19.75;77.77
14689;BME280;7432;48.728;9.154;2022-08-19T04:28:41;96169.69;;;19.81;77.48
14689;BME280;7432;48.728;9.154;2022-08-19T04:31:13;96166.38;;;19.74;77.36
14689;BME280;7432;48.728;9.154;2022-08-19T04:33:40;96163.22;;;19.72;77.96
14689;BME280;7432;48.728;9.154;2022-08-19T04:36:07;96160.00;;;19.70;78.22
14689;BME280;7432;48.728;9.154;2022-08-19T04:38:35;96157.75;;;19.74;77.64
14689;BME280;7432;48.728;9.154;2022-08-19T04:41:02;96159.78;;;19.72;77.39
14689;BME280;7432;48.728;9.154;2022-08-19T04:43:47;96164.91;;;19.67;77.71
14689;BME280;7432;48.728;9.154;2022-08-19T04:46:15;96162.75;;;19.64;77.91
14689;BME280;7432;48.728;9.154;2022-08-19T04:48:42;96169.69;;;19.70;77.80
14689;BME280;7432;48.728;9.154;2022-08-19T04:51:10;96172.28;;;19.70;77.65
14689;BME280;7432;48.728;9.154;2022-08-19T04:53:39;96169.69;;;19.70;77.59
14689;BME280;7432;48.728;9.154;2022-08-19T04:56:09;96164.56;;;19.75;77.67
14689;BME280;7432;48.728;9.154;2022-08-19T04:58:37;96160.69;;;19.66;77.90
14689;BME280;7432;48.728;9.154;2022-08-19T05:01:04;96164.22;;;19.71;77.46
14689;BME280;7432;48.728;9.154;2022-08-19T05:03:32;96167.50;;;19.67;77.75
14689;BME280;7432;48.728;9.154;2022-08-19T05:06:04;96168.00;;;19.75;77.49
14689;BME280;7432;48.728;9.154;2022-08-19T05:08:33;96177.19;;;19.78;77.18
14689;BME280;7432;48.728;9.154;2022-08-19T05:11:00;96181.50;;;19.84;77.23
14689;BME280;7432;48.728;9.154;2022-08-19T05:13:27;96184.25;;;19.89;77.14
14689;BME280;7432;48.728;9.154;2022-08-19T05:15:54;96190.84;;;19.91;76.44
14689;BME280;7432;48.728;9.154;2022-08-19T05:18:21;96200.59;;;19.84;77.02
14689;BME280;7432;48.728;9.154;2022-08-19T05:21:08;96204.13;;;19.90;76.90
14689;BME280;7432;48.728;9.154;2022-08-19T05:23:52;96218.00;;;19.90;76.93
14689;BME280;7432;48.728;9.154;2022-08-19T05:26:19;96231.63;;;19.92;76.84
14689;BME280;7432;48.728;9.154;2022-08-19T05:28:45;96244.03;;;19.97;76.68
14689;BME280;7432;48.728;9.154;2022-08-19T05:31:12;96244.69;;;19.92;76.76
14689;BME280;7432;48.728;9.154;2022-08-19T05:33:39;96253.03;;;20.01;76.58
14689;BME280;7432;48.728;9.154;2022-08-19T05:36:07;96256.19;;;20.03;76.79
14689;BME280;7432;48.728;9.154;2022-08-19T05:38:34;96268.03;;;20.05;76.68
14689;BME280;7432;48.728;9.154;2022-08-19T05:41:06;96267.00;;;20.06;76.34
14689;BME280;7432;48.728;9.154;2022-08-19T05:43:33;96260.78;;;20.07;76.05
14689;BME280;7432;48.728;9.154;2022-08-19T05:46:00;96258.38;;;20.06;76.29
14689;BME280;7432;48.728;9.154;2022-08-19T05:48:26;96265.41;;;20.05;76.23
14689;BME280;7432;48.728;9.154;2022-08-19T05:50:53;96253.72;;;20.08;76.17
14689;BME280;7432;48.728;9.154;2022-08-19T05:53:21;96253.59;;;20.03;76.55
14689;BME280;7432;48.728;9.154;2022-08-19T05:55:47;96257.81;;;20.04;76.57
14689;BME280;7432;48.728;9.154;2022-08-19T05:58:14;96257.25;;;20.02;76.30
14689;BME280;7432;48.728;9.154;2022-08-19T06:00:43;96248.03;;;20.11;76.23
14689;BME280;7432;48.728;9.154;2022-08-19T06:03:10;96255.75;;;20.06;76.04
14689;BME280;7432;48.728;9.154;2022-08-19T06:05:36;96254.19;;;20.05;76.45
14689;BME280;7432;48.728;9.154;2022-08-19T06:08:03;96259.28;;;20.11;75.94
14689;BME280;7432;48.728;9.154;2022-08-19T06:10:31;96263.06;;;20.16;75.95
14689;BME280;7432;48.728;9.154;2022-08-19T06:12:57;96257.16;;;20.20;75.75
14689;BME280;7432;48.728;9.154;2022-08-19T06:15:23;96251.84;;;20.27;75.58
14689;BME280;7432;48.728;9.154;2022-08-19T06:17:53;96257.88;;;20.27;75.31
14689;BME280;7432;48.728;9.154;2022-08-19T06:20:19;96249.69;;;20.35;75.08
14689;BME280;7432;48.728;9.154;2022-08-19T06:22:47;96256.50;;;20.36;75.15
14689;BME280;7432;48.728;9.154;2022-08-19T06:25:15;96247.66;;;20.37;74.94
14689;BME280;7432;48.728;9.154;2022-08-19T06:27:43;96259.47;;;20.40;75.00
14689;BME280;7432;48.728;9.154;2022-08-19T06:30:11;96257.06;;;20.38;75.06
14689;BME280;7432;48.728;9.154;2022-08-19T06:32:38;96267.53;;;20.38;74.87
14689;BME280;7432;48.728;9.154;2022-08-19T06:35:06;96259.47;;;20.40;75.32
14689;BME280;7432;48.728;9.154;2022-08-19T06:37:32;96257.75;;;20.34;75.45
14689;BME280;7432;48.728;9.154;2022-08-19T06:39:59;96259.91;;;20.25;76.04
14689;BME280;7432;48.728;9.154;2022-08-19T06:42:25;96268.66;;;20.31;76.31
14689;BME280;7432;48.728;9.154;2022-08-19T06:44:53;96259.44;;;20.28;76.89
14689;BME280;7432;48.728;9.154;2022-08-19T06:47:21;96259.09;;;20.25;78.26
14689;BME280;7432;48.728;9.154;2022-08-19T06:49:47;96261.13;;;20.23;78.57
14689;BME280;7432;48.728;9.154;2022-08-19T06:52:14;96256.34;;;20.20;79.44
14689;BME280;7432;48.728;9.154;2022-08-19T06:54:41;96261.34;;;20.09;79.27
14689;BME280;7432;48.728;9.154;2022-08-19T06:57:08;96270.88;;;20.04;79.49
14689;BME280;7432;48.728;9.154;2022-08-19T06:59:38;96269.16;;;19.98;80.29
14689;BME280;7432;48.728;9.154;2022-08-19T07:02:07;96267.47;;;20.03;81.09
14689;BME280;7432;48.728;9.154;2022-08-19T07:04:34;96273.94;;;20.01;80.63
14689;BME280;7432;48.728;9.154;2022-08-19T07:07:05;96277.00;;;19.98;81.88
14689;BME280;7432;48.728;9.154;2022-08-19T07:09:33;96274.34;;;19.86;81.94
14689;BME280;7432;48.728;9.154;2022-08-19T07:12:04;96280.97;;;19.89;82.17
14689;BME280;7432;48.728;9.154;2022-08-19T07:14:32;96278.69;;;19.92;82.53
14689;BME280;7432;48.728;9.154;2022-08-19T07:17:04;96277.00;;;19.98;83.37
14689;BME280;7432;48.728;9.154;2022-08-19T07:19:32;96286.56;;;20.04;82.83
14689;BME280;7432;48.728;9.154;2022-08-19T07:22:01;96281.56;;;20.02;82.33
14689;BME280;7432;48.728;9.154;2022-08-19T07:24:28;96284.75;;;20.04;81.45
14689;BME280;7432;48.728;9.154;2022-08-19T07:26:58;96282.22;;;19.98;82.04
14689;BME280;7432;48.728;9.154;2022-08-19T07:29:28;96274.38;;;19.98;81.15
14689;BME280;7432;48.728;9.154;2022-08-19T07:31:56;96284.97;;;20.03;82.57
14689;BME280;7432;48.728;9.154;2022-08-19T07:34:24;96279.84;;;19.96;82.12
14689;BME280;7432;48.728;9.154;2022-08-19T07:36:53;96285.28;;;19.95;82.38
14689;BME280;7432;48.728;9.154;2022-08-19T07:39:23;96287.44;;;19.98;82.33
14689;BME280;7432;48.728;9.154;2022-08-19T07:41:50;96285.63;;;19.98;81.94
14689;BME280;7432;48.728;9.154;2022-08-19T07:44:18;96280.41;;;19.98;81.46
14689;BME280;7432;48.728;9.154;2022-08-19T07:46:47;96288.69;;;19.95;81.92
14689;BME280;7432;48.728;9.154;2022-08-19T07:49:16;96289.72;;;19.94;80.67
14689;BME280;7432;48.728;9.154;2022-08-19T07:51:45;96283.59;;;19.89;81.85
14689;BME280;7432;48.728;9.154;2022-08-19T07:54:13;96283.22;;;19.85;81.94
14689;BME280;7432;48.728;9.154;2022-08-19T07:56:40;96288.66;;;19.84;82.73
14689;BME280;7432;48.728;9.154;2022-08-19T07:59:06;96287.78;;;19.90;81.76
14689;BME280;7432;48.728;9.154;2022-08-19T08:01:34;96285.72;;;19.92;82.38
14689;BME280;7432;48.728;9.154;2022-08-19T08:04:01;96286.19;;;19.89;82.13
14689;BME280;7432;48.728;9.154;2022-08-19T08:06:45;96279.94;;;19.90;83.13
14689;BME280;7432;48.728;9.154;2022-08-19T08:09:35;96289.50;;;19.96;83.50
14689;BME280;7432;48.728;9.154;2022-08-19T08:12:04;96298.16;;;19.96;83.54
14689;BME280;7432;48.728;9.154;2022-08-19T08:14:35;96294.16;;;19.94;82.39
14689;BME280;7432;48.728;9.154;2022-08-19T08:17:03;96301.66;;;19.90;82.13
14689;BME280;7432;48.728;9.154;2022-08-19T08:19:30;96302.84;;;19.76;83.10
14689;BME280;7432;48.728;9.154;2022-08-19T08:21:58;96307.44;;;19.63;82.84
14689;BME280;7432;48.728;9.154;2022-08-19T08:24:26;96304.16;;;19.67;84.48
14689;BME280;7432;48.728;9.154;2022-08-19T08:26:55;96307.56;;;19.68;84.08
14689;BME280;7432;48.728;9.154;2022-08-19T08:29:22;96311.00;;;19.68;83.90
14689;BME280;7432;48.728;9.154;2022-08-19T08:31:49;96308.81;;;19.65;84.57
14689;BME280;7432;48.728;9.154;2022-08-19T08:34:16;96305.63;;;19.63;85.52
14689;BME280;7432;48.728;9.154;2022-08-19T08:36:44;96305.41;;;19.65;86.67
14689;BME280;7432;48.728;9.154;2022-08-19T08:39:13;96302.00;;;19.64;86.81
14689;BME280;7432;48.728;9.154;2022-08-19T08:41:47;96300.84;;;19.60;86.05
14689;BME280;7432;48.728;9.154;2022-08-19T08:44:22;96306.00;;;19.48;85.17
14689;BME280;7432;48.728;9.154;2022-08-19T08:46:51;96304.06;;;19.44;86.91
14689;BME280;7432;48.728;9.154;2022-08-19T08:49:26;96306.31;;;19.40;86.47
14689;BME280;7432;48.728;9.154;2022-08-19T08:51:59;96305.69;;;19.45;87.61
14689;BME280;7432;48.728;9.154;2022-08-19T08:54:30;96305.56;;;19.51;87.72
14689;BME280;7432;48.728;9.154;2022-08-19T08:56:58;96300.91;;;19.53;88.25
14689;BME280;7432;48.728;9.154;2022-08-19T08:59:28;96311.00;;;19.68;87.38
14689;BME280;7432;48.728;9.154;2022-08-19T09:01:57;96308.00;;;19.83;86.02
14689;BME280;7432;48.728;9.154;2022-08-19T09:04:24;96306.19;;;19.95;86.75
14689;BME280;7432;48.728;9.154;2022-08-19T09:06:55;96304.19;;;20.08;84.81
14689;BME280;7432;48.728;9.154;2022-08-19T09:09:32;96306.84;;;20.20;84.58
14689;BME280;7432;48.728;9.154;2022-08-19T09:12:05;96312.50;;;20.17;84.99
14689;BME280;7432;48.728;9.154;2022-08-19T09:14:40;96312.50;;;20.17;84.87
14689;BME280;7432;48.728;9.154;2022-08-19T09:17:12;96315.25;;;20.10;83.62
14689;BME280;7432;48.728;9.154;2022-08-19T09:19:49;96313.41;;;20.11;83.23
14689;BME280;7432;48.728;9.154;2022-08-19T09:22:17;96319.09;;;20.08;84.79
14689;BME280;7432;48.728;9.154;2022-08-19T09:24:47;96317.06;;;20.10;85.61
14689;BME280;7432;48.728;9.154;2022-08-19T09:27:13;96311.81;;;20.10;85.05
14689;BME280;7432;48.728;9.154;2022-08-19T09:29:41;96315.03;;;20.24;84.45
14689;BME280;7432;48.728;9.154;2022-08-19T09:32:07;96316.66;;;20.36;85.24
14689;BME280;7432;48.728;9.154;2022-08-19T09:34:33;96316.00;;;20.41;84.13
14689;BME280;7432;48.728;9.154;2022-08-19T09:37:00;96309.97;;;20.40;83.88
14689;BME280;7432;48.728;9.154;2022-08-19T09:39:28;96313.59;;;20.39;85.21
14689;BME280;7432;48.728;9.154;2022-08-19T09:41:55;96312.31;;;20.30;85.48
14689;BME280;7432;48.728;9.154;2022-08-19T09:44:22;96314.50;;;20.33;83.83
14689;BME280;7432;48.728;9.154;2022-08-19T09:46:50;96315.19;;;20.29;83.36
14689;BME280;7432;48.728;9.154;2022-08-19T09:49:17;96323.72;;;20.36;84.13
14689;BME280;7432;48.728;9.154;2022-08-19T09:51:45;96326.56;;;20.34;84.48
14689;BME280;7432;48.728;9.154;2022-08-19T09:54:14;96329.72;;;20.25;82.92
14689;BME280;7432;48.728;9.154;2022-08-19T09:56:40;96333.34;;;20.24;83.38
14689;BME280;7432;48.728;9.154;2022-08-19T09:59:07;96327.31;;;20.23;85.45
14689;BME280;7432;48.728;9.154;2022-08-19T10:01:34;96331.44;;;20.31;83.75
14689;BME280;7432;48.728;9.154;2022-08-19T10:04:02;96322.78;;;20.30;82.68
14689;BME280;7432;48.728;9.154;2022-08-19T10:06:34;96320.66;;;20.39;83.50
14689;BME280;7432;48.728;9.154;2022-08-19T10:09:02;96321.13;;;20.47;82.51
14689;BME280;7432;48.728;9.154;2022-08-19T10:11:30;96321.22;;;20.52;83.23
14689;BME280;7432;48.728;9.154;2022-08-19T10:13:57;96329.19;;;20.57;83.16
14689;BME280;7432;48.728;9.154;2022-08-19T10:16:23;96327.03;;;20.66;82.63
14689;BME280;7432;48.728;9.154;2022-08-19T10:18:51;96326.28;;;20.65;81.91
14689;BME280;7432;48.728;9.154;2022-08-19T10:21:20;96326.84;;;20.79;84.36
14689;BME280;7432;48.728;9.154;2022-08-19T10:23:49;96324.09;;;20.86;85.87
14689;BME280;7432;48.728;9.154;2022-08-19T10:26:19;96323.28;;;20.85;83.31
14689;BME280;7432;48.728;9.154;2022-08-19T10:28:45;96323.88;;;20.76;83.34
14689;BME280;7432;48.728;9.154;2022-08-19T10:31:14;96330.38;;;20.73;83.73
14689;BME280;7432;48.728;9.154;2022-08-19T10:33:42;96327.28;;;20.64;82.26
14689;BME280;7432;48.728;9.154;2022-08-19T10:36:10;96315.56;;;20.67;82.49
14689;BME280;7432;48.728;9.154;2022-08-19T10:38:41;96321.47;;;20.86;83.96
14689;BME280;7432;48.728;9.154;2022-08-19T10:41:10;96316.44;;;20.96;84.22
14689;BME280;7432;48.728;9.154;2022-08-19T10:43:37;96320.47;;;21.10;83.46
14689;BME280;7432;48.728;9.154;2022-08-19T10:46:05;96320.91;;;21.18;82.59
14689;BME280;7432;48.728;9.154;2022-08-19T10:48:32;96322.28;;;21.09;82.58
14689;BME280;7432;48.728;9.154;2022-08-19T10:50:59;96320.91;;;21.07;82.52
14689;BME280;7432;48.728;9.154;2022-08-19T10:53:44;96308.72;;;21.12;82.03
14689;BME280;7432;48.728;9.154;2022-08-19T10:56:11;96315.44;;;21.20;82.42
14689;BME280;7432;48.728;9.154;2022-08-19T10:58:55;96311.44;;;21.17;80.55
14689;BME280;7432;48.728;9.154;2022-08-19T11:01:23;96311.13;;;21.25;80.96
14689;BME280;7432;48.728;9.154;2022-08-19T11:03:49;96304.63;;;21.28;82.58
14689;BME280;7432;48.728;9.154;2022-08-19T11:06:16;96319.38;;;21.34;81.28
14689;BME280;7432;48.728;9.154;2022-08-19T11:08:42;96321.88;;;21.41;82.63
14689;BME280;7432;48.728;9.154;2022-08-19T11:11:12;96312.41;;;21.40;79.96
14689;BME280;7432;48.728;9.154;2022-08-19T11:13:40;96312.78;;;21.32;81.04
14689;BME280;7432;48.728;9.154;2022-08-19T11:16:09;96314.66;;;21.19;80.07
14689;BME280;7432;48.728;9.154;2022-08-19T11:18:40;96318.09;;;21.08;79.99
14689;BME280;7432;48.728;9.154;2022-08-19T11:21:10;96317.03;;;21.09;81.37
14689;BME280;7432;48.728;9.154;2022-08-19T11:23:37;96321.13;;;21.05;79.38
14689;BME280;7432;48.728;9.154;2022-08-19T11:26:04;96316.47;;;21.07;80.49
14689;BME280;7432;48.728;9.154;2022-08-19T11:28:32;96312.84;;;21.20;79.36
14689;BME280;7432;48.728;9.154;2022-08-19T11:30:58;96321.59;;;21.25;77.65
14689;BME280;7432;48.728;9.154;2022-08-19T11:33:25;96322.69;;;21.41;76.43
14689;BME280;7432;48.728;9.154;2022-08-19T11:35:52;96322.97;;;21.56;76.21
14689;BME280;7432;48.728;9.154;2022-08-19T11:38:19;96315.50;;;21.76;76.16
14689;BME280;7432;48.728;9.154;2022-08-19T11:40:54;96320.56;;;21.95;75.18
14689;BME280;7432;48.728;9.154;2022-08-19T11:43:20;96313.88;;;22.15;75.22
14689;BME280;7432;48.728;9.154;2022-08-19T11:45:48;96317.94;;;22.23;73.89
14689;BME280;7432;48.728;9.154;2022-08-19T11:48:15;96321.91;;;22.25;75.47
14689;BME280;7432;48.728;9.154;2022-08-19T11:50:42;96320.00;;;22.21;74.67
14689;BME280;7432;48.728;9.154;2022-08-19T11:53:08;96323.72;;;22.25;73.69
14689;BME280;7432;48.728;9.154;2022-08-19T11:55:37;96324.84;;;22.29;74.61
14689;BME280;7432;48.728;9.154;2022-08-19T11:58:04;96319.44;;;22.35;76.19
14689;BME280;7432;48.728;9.154;2022-08-19T12:00:31;96318.88;;;22.33;72.11
14689;BME280;7432;48.728;9.154;2022-08-19T12:03:00;96312.16;;;22.37;74.06
14689;BME280;7432;48.728;9.154;2022-08-19T12:05:27;96307.84;;;22.48;74.46
14689;BME280;7432;48.728;9.154;2022-08-19T12:07:53;96309.22;;;22.67;74.61
14689;BME280;7432;48.728;9.154;2022-08-19T12:10:21;96312.53;;;22.79;71.28
14689;BME280;7432;48.728;9.154;2022-08-19T12:12:48;96310.47;;;22.81;69.76
14689;BME280;7432;48.728;9.154;2022-08-19T12:15:14;96301.97;;;22.74;70.89
14689;BME280;7432;48.728;9.154;2022-08-19T12:17:41;96309.88;;;22.63;70.12
14689;BME280;7432;48.728;9.154;2022-08-19T12:20:11;96323.19;;;22.56;70.85
14689;BME280;7432;48.728;9.154;2022-08-19T12:22:39;96318.63;;;22.52;71.63
14689;BME280;7432;48.728;9.154;2022-08-19T12:25:07;96318.50;;;22.41;70.60
14689;BME280;7432;48.728;9.154;2022-08-19T12:27:34;96312.44;;;22.41;72.39
14689;BME280;7432;48.728;9.154;2022-08-19T12:30:01;96311.63;;;22.40;72.45
14689;BME280;7432;48.728;9.154;2022-08-19T12:32:28;96316.72;;;22.30;72.77
14689;BME280;7432;48.728;9.154;2022-08-19T12:34:54;96311.41;;;22.25;69.92
14689;BME280;7432;48.728;9.154;2022-08-19T12:37:22;96314.91;;;22.31;69.84
14689;BME280;7432;48.728;9.154;2022-08-19T12:39:49;96301.78;;;22.31;71.60
14689;BME280;7432;48.728;9.154;2022-08-19T12:42:15;96310.69;;;22.30;73.40
14689;BME280;7432;48.728;9.154;2022-08-19T12:44:43;96312.91;;;22.21;74.94
14689;BME280;7432;48.728;9.154;2022-08-19T12:47:11;96317.66;;;22.08;78.01
14689;BME280;7432;48.728;9.154;2022-08-19T12:49:39;96316.94;;;21.96;81.77
14689;BME280;7432;48.728;9.154;2022-08-19T12:52:07;96322.09;;;21.79;84.72
14689;BME280;7432;48.728;9.154;2022-08-19T12:54:36;96318.91;;;21.49;87.04
14689;BME280;7432;48.728;9.154;2022-08-19T12:57:05;96314.69;;;21.48;88.04
14689;BME280;7432;48.728;9.154;2022-08-19T12:59:33;96311.84;;;21.49;87.72
14689;BME280;7432;48.728;9.154;2022-08-19T13:01:59;96321.53;;;21.49;88.58
14689;BME280;7432;48.728;9.154;2022-08-19T13:04:26;96312.69;;;21.26;88.24
14689;BME280;7432;48.728;9.154;2022-08-19T13:06:52;96316.47;;;21.07;88.34
14689;BME280;7432;48.728;9.154;2022-08-19T13:09:19;96317.84;;;20.98;89.04
14689;BME280;7432;48.728;9.154;2022-08-19T13:11:46;96327.97;;;21.18;88.17
14689;BME280;7432;48.728;9.154;2022-08-19T13:14:13;96324.88;;;21.33;87.44
14689;BME280;7432;48.728;9.154;2022-08-19T13:16:39;96327.91;;;21.53;86.96